International Virtual Aviation Organisation

Russian Federation and Kazakhstan MCD

 

Карточка аэропорта UUDL

Внимание!
Информация на этой странице в стадии наполнения.
Если вы не увидели какой-то информации, или заметили неточность - пожалуйста сообщите нам!
Спасибо!
Команда RU-STAFF
Название аэропортаТуношна
Название аэропорта (англ.)Tunoshna
Превышение305 ft. (93 m.)
Координаты57°33.636', 40°9.438'
Высота перехода700m
Эшелон переходаFL050
Коды ответчика2750-2757
Зона ОрВДМосква РПИ (UUWV)
Данные METARUUDL 191630Z 17002MPS CAVOK 20/17 Q1017 R23/010060 NOSIG RMK QFE754
Проноз погоды (TAF)UUDL 191400Z 1915/2015 22003MPS 8000 SCT020 TEMPO 1918/2006 0500 FG VV003
NOTAMshow/hide NOTAM
AWOS   TABLE

Информация о ВПП

ВПП Длина ВПП (м.) Покрытие Курс ВПП Частота ILS
053000Асфальтобетон52 
233000Асфальтобетон232110.5

Диспетчерские позиции

Позывной Наименование органа УВД Частота
UUDL_APPЯрославль - Подход120.300



Спутниковое изображение